Terminal Aerodrome Forecast
Issued by NWS Duluth, MN

Home | Current Version | Previous Version | Text Only | Print | Product List | Glossary On
Versions: 1 2 3 4 5 6 7 8 9 10 11 12 13 14 15 16 17 18 19 20 21 22 23 24 25
493
FTUS43 KDLH 152338
TAFINL
TAF
KINL 152338Z 1600/1624 12004KT P6SM SCT050 BKN130
     FM161500 11006KT P6SM VCSH OVC060
     FM161800 10006KT 4SM SHRA OVC020
     FM162000 11007KT 3SM SHRA OVC010
     FM162100 11007KT 2SM SHRA OVC008=

USA.gov is the U.S. government's official web portal to all federal, state and local government web resources and services.